createdAt,value
2023-04-02T00:02:31.802Z,94119.63
2023-04-02T00:05:19.529Z,94126.69
2023-04-02T00:07:50.869Z,94120.47
2023-04-02T00:10:29.919Z,94130.78
2023-04-02T00:13:02.620Z,94126.69
2023-04-02T00:15:30.817Z,94136.69
2023-04-02T00:17:58.755Z,94134.47
2023-04-02T00:20:27.560Z,94127.41
2023-04-02T00:22:57.123Z,94123.66
2023-04-02T00:25:27.968Z,94142.69
2023-04-02T00:27:55.860Z,94134.00
2023-04-02T00:30:23.886Z,94137.19
2023-04-02T00:32:52.599Z,94136.63
2023-04-02T00:35:22.370Z,94147.66
2023-04-02T00:37:50.666Z,94136.84
2023-04-02T00:40:22.057Z,94140.59
2023-04-02T00:42:50.601Z,94142.03
2023-04-02T00:45:23.716Z,94141.41
2023-04-02T00:47:52.090Z,94134.88
2023-04-02T00:50:24.994Z,94140.75
2023-04-02T00:52:53.888Z,94137.38
2023-04-02T00:55:25.420Z,94135.25
2023-04-02T00:57:53.669Z,94135.97
2023-04-02T01:00:24.593Z,94136.22
2023-04-02T01:03:34.442Z,94138.91
2023-04-02T01:06:10.536Z,94140.47
2023-04-02T01:08:56.662Z,94143.41
2023-04-02T01:11:37.820Z,94144.13
2023-04-02T01:14:10.921Z,94145.19
2023-04-02T01:16:46.741Z,94157.56
2023-04-02T01:19:31.770Z,94141.56
2023-04-02T01:22:01.806Z,94151.00
2023-04-02T01:24:32.329Z,94142.28
2023-04-02T01:27:03.596Z,94144.19
2023-04-02T01:29:34.476Z,94156.03
2023-04-02T01:32:05.581Z,94158.75
2023-04-02T01:34:33.676Z,94162.19
2023-04-02T01:37:22.946Z,94167.59
2023-04-02T01:40:01.617Z,94159.63
2023-04-02T01:42:33.609Z,94180.75
2023-04-02T01:45:04.693Z,94172.91
2023-04-02T01:47:33.246Z,94178.19
2023-04-02T01:50:04.434Z,94169.72
2023-04-02T01:52:37.579Z,94177.59
2023-04-02T01:55:06.154Z,94170.47
2023-04-02T01:57:33.923Z,94171.84
2023-04-02T02:00:08.048Z,94171.84
2023-04-02T02:02:36.372Z,94173.16
2023-04-02T02:05:04.661Z,94173.16
2023-04-02T02:07:32.368Z,94171.03
2023-04-02T02:10:00.258Z,94184.91
2023-04-02T02:12:28.015Z,94186.78
2023-04-02T02:14:55.790Z,94178.44
2023-04-02T02:17:28.404Z,94185.22
2023-04-02T02:19:57.675Z,94187.94
2023-04-02T02:22:29.713Z,94186.66
2023-04-02T02:24:58.741Z,94188.50
2023-04-02T02:27:44.357Z,94190.75
2023-04-02T02:30:14.348Z,94192.63
2023-04-02T02:32:48.967Z,94196.16
2023-04-02T02:35:19.430Z,94200.28
2023-04-02T02:37:49.291Z,94205.44
2023-04-02T02:40:19.487Z,94211.91
2023-04-02T02:42:49.067Z,94205.22
2023-04-02T02:45:19.816Z,94200.59
2023-04-02T02:47:49.470Z,94205.53
2023-04-02T02:50:21.547Z,94203.88
2023-04-02T02:52:54.251Z,94204.94
2023-04-02T02:55:24.430Z,94208.16
2023-04-02T02:57:56.920Z,94207.31
2023-04-02T03:00:25.574Z,94198.38
2023-04-02T03:02:56.319Z,94211.91
2023-04-02T03:05:26.050Z,94214.84
2023-04-02T03:07:56.693Z,94208.16
2023-04-02T03:10:28.362Z,94215.41
2023-04-02T03:12:59.336Z,94210.25
2023-04-02T03:15:31.935Z,94215.66
2023-04-02T03:18:04.291Z,94212.38
2023-04-02T03:20:35.758Z,94212.84
2023-04-02T03:23:06.420Z,94210.88
2023-04-02T03:25:38.005Z,94211.91
2023-04-02T03:28:07.600Z,94227.91
2023-04-02T03:30:40.136Z,94220.84
2023-04-02T03:33:13.934Z,94231.31
2023-04-02T03:35:44.790Z,94235.56
2023-04-02T03:38:16.882Z,94238.16
2023-04-02T03:40:47.772Z,94235.88
2023-04-02T03:43:19.982Z,94241.16
2023-04-02T03:45:48.971Z,94245.72
2023-04-02T03:48:21.431Z,94244.56
2023-04-02T03:50:52.132Z,94241.63
2023-04-02T03:53:19.979Z,94240.22
2023-04-02T03:55:47.846Z,94254.19
2023-04-02T03:58:18.777Z,94251.72
2023-04-02T04:00:51.288Z,94255.84
2023-04-02T04:03:23.733Z,94265.84
2023-04-02T04:05:52.945Z,94262.91
2023-04-02T04:08:25.183Z,94261.25
2023-04-02T04:10:53.880Z,94264.53
2023-04-02T04:13:26.018Z,94273.22
2023-04-02T04:15:54.222Z,94274.88
2023-04-02T04:18:34.714Z,94274.88
2023-04-02T04:21:04.295Z,94279.69
2023-04-02T04:23:33.709Z,94275.56
2023-04-02T04:26:05.523Z,94284.50
2023-04-02T04:28:39.210Z,94286.38
2023-04-02T04:31:18.017Z,94290.38
2023-04-02T04:33:50.545Z,94286.38
2023-04-02T04:36:28.579Z,94293.88
2023-04-02T04:38:59.563Z,94286.72
2023-04-02T04:41:30.373Z,94294.59
2023-04-02T04:44:02.326Z,94300.44
2023-04-02T04:46:32.421Z,94309.75
2023-04-02T04:49:03.972Z,94309.41
2023-04-02T04:51:35.371Z,94309.41
2023-04-02T04:54:03.063Z,94305.84
2023-04-02T04:56:31.837Z,94309.63
2023-04-02T04:59:03.189Z,94315.03
2023-04-02T05:01:36.446Z,94309.63
2023-04-02T05:04:12.399Z,94317.97
2023-04-02T05:06:42.172Z,94320.88
2023-04-02T05:09:15.157Z,94322.78
2023-04-02T05:11:46.326Z,94323.59
2023-04-02T05:14:23.528Z,94322.41
2023-04-02T05:16:56.171Z,94335.94
2023-04-02T05:19:29.024Z,94339.91
2023-04-02T05:22:00.246Z,94338.97
2023-04-02T05:24:43.441Z,94328.63
2023-04-02T05:27:19.584Z,94334.38
2023-04-02T05:29:51.142Z,94341.16
2023-04-02T05:32:21.197Z,94346.56
2023-04-02T05:34:54.782Z,94343.41
2023-04-02T05:37:23.811Z,94356.78
2023-04-02T05:39:54.450Z,94354.31
2023-04-02T05:42:24.532Z,94360.56
2023-04-02T05:44:59.702Z,94354.94
2023-04-02T05:47:30.696Z,94357.63
2023-04-02T05:50:11.534Z,94366.69
2023-04-02T05:52:43.147Z,94364.56
2023-04-02T05:55:28.598Z,94367.38
2023-04-02T05:58:17.694Z,94370.69
2023-04-02T06:00:54.354Z,94380.56
2023-04-02T06:03:27.261Z,94383.41
2023-04-02T06:05:59.392Z,94385.63
2023-04-02T06:08:32.578Z,94389.53
2023-04-02T06:11:03.516Z,94391.75
2023-04-02T06:13:31.203Z,94392.41
2023-04-02T06:15:58.909Z,94396.84
2023-04-02T06:18:28.067Z,94400.16
2023-04-02T06:20:57.047Z,94396.97
2023-04-02T06:23:30.895Z,94401.47
2023-04-02T06:26:01.277Z,94409.22
2023-04-02T06:28:32.611Z,94408.88
2023-04-02T06:31:04.419Z,94409.59
2023-04-02T06:33:32.076Z,94413.94
2023-04-02T06:36:01.893Z,94419.00
2023-04-02T06:38:31.295Z,94424.78
2023-04-02T06:41:00.893Z,94427.34
2023-04-02T06:43:33.481Z,94432.41
2023-04-02T06:46:04.765Z,94431.94
2023-04-02T06:48:33.479Z,94434.78
2023-04-02T06:51:07.139Z,94441.34
2023-04-02T06:53:38.171Z,94443.13
2023-04-02T06:56:08.037Z,94451.09
2023-04-02T06:58:35.865Z,94447.47
2023-04-02T07:01:03.575Z,94450.50
2023-04-02T07:03:32.589Z,94446.84
2023-04-02T07:06:03.395Z,94458.03
2023-04-02T07:08:31.083Z,94458.72
2023-04-02T07:10:58.848Z,94470.94
2023-04-02T07:13:26.564Z,94459.19
2023-04-02T07:15:55.712Z,94462.22
2023-04-02T07:18:25.775Z,94457.41
2023-04-02T07:20:53.692Z,94464.09
2023-04-02T07:23:22.730Z,94457.97
2023-04-02T07:25:50.759Z,94462.06
2023-04-02T07:28:21.363Z,94460.41
2023-04-02T07:30:50.871Z,94457.88
2023-04-02T07:33:20.547Z,94467.28
2023-04-02T07:35:48.528Z,94470.66
2023-04-02T07:38:16.543Z,94464.53
2023-04-02T07:40:45.813Z,94477.44
2023-04-02T07:43:13.581Z,94474.56
2023-04-02T07:45:41.320Z,94479.28
2023-04-02T07:48:10.902Z,94481.00
2023-04-02T07:50:38.821Z,94480.53
2023-04-02T07:53:07.077Z,94491.56
2023-04-02T07:55:34.867Z,94492.94
2023-04-02T07:58:04.138Z,94491.28
2023-04-02T08:00:32.272Z,94488.66
2023-04-02T08:02:59.963Z,94500.06
2023-04-02T08:05:27.839Z,94500.66
2023-04-02T08:07:56.867Z,94505.19
2023-04-02T08:10:25.241Z,94507.97
2023-04-02T08:12:52.826Z,94515.47
2023-04-02T08:15:21.891Z,94506.34
2023-04-02T08:17:49.592Z,94515.63
2023-04-02T08:20:19.053Z,94514.66
2023-04-02T08:22:47.092Z,94516.97
2023-04-02T08:25:14.727Z,94518.59
2023-04-02T08:27:42.778Z,94522.06
2023-04-02T08:30:13.606Z,94527.56
2023-04-02T08:32:42.633Z,94524.78
2023-04-02T08:35:11.992Z,94528.94
2023-04-02T08:37:39.793Z,94527.47
2023-04-02T08:40:10.099Z,94535.94
2023-04-02T08:42:41.016Z,94528.78
2023-04-02T08:45:25.300Z,94524.94
2023-04-02T08:47:56.563Z,94531.81
2023-04-02T08:50:30.171Z,94529.25
2023-04-02T08:52:58.171Z,94521.91
2023-04-02T08:55:33.561Z,94533.06
2023-04-02T08:58:06.480Z,94532.47
2023-04-02T09:00:38.054Z,94536.47
2023-04-02T09:03:11.898Z,94541.09
2023-04-02T09:05:42.336Z,94542.78
2023-04-02T09:08:18.296Z,94547.63
2023-04-02T09:10:52.301Z,94557.25
2023-04-02T09:13:24.824Z,94551.19
2023-04-02T09:15:56.425Z,94554.75
2023-04-02T09:18:25.812Z,94564.06
2023-04-02T09:20:53.566Z,94571.13
2023-04-02T09:23:24.097Z,94568.84
2023-04-02T09:26:03.537Z,94574.88
2023-04-02T09:28:31.681Z,94573.44
2023-04-02T09:31:07.380Z,94575.66
2023-04-02T09:33:44.217Z,94579.19
2023-04-02T09:36:33.989Z,94583.78
2023-04-02T09:39:06.997Z,94577.13
2023-04-02T09:41:37.118Z,94590.25
2023-04-02T09:44:30.426Z,94581.66
2023-04-02T09:47:00.501Z,94584.09
2023-04-02T09:49:31.130Z,94594.56
2023-04-02T09:52:19.915Z,94585.56
2023-04-02T09:54:48.027Z,94588.28
2023-04-02T09:57:23.857Z,94592.72
2023-04-02T10:00:29.800Z,94597.97
2023-04-02T10:03:06.168Z,94589.38
2023-04-02T10:08:19.877Z,94596.69
2023-04-02T10:10:50.378Z,94598.44
2023-04-02T10:13:25.563Z,94603.06
2023-04-02T10:15:56.685Z,94603.34
2023-04-02T10:18:31.645Z,94613.50
2023-04-02T10:21:01.499Z,94609.19
2023-04-02T10:23:31.261Z,94619.69
2023-04-02T10:26:04.972Z,94626.22
2023-04-02T10:28:45.142Z,94621.84
2023-04-02T10:31:18.191Z,94619.72
2023-04-02T10:33:50.340Z,94622.75
2023-04-02T10:36:22.446Z,94628.66
2023-04-02T10:38:52.310Z,94624.63
2023-04-02T10:41:28.953Z,94634.34
2023-04-02T10:44:26.052Z,94633.91
2023-04-02T10:47:05.054Z,94628.66
2023-04-02T10:49:37.585Z,94620.28
2023-04-02T10:52:09.675Z,94623.63
2023-04-02T10:54:41.676Z,94633.81
2023-04-02T10:57:15.673Z,94628.16
2023-04-02T10:59:45.495Z,94629.31
2023-04-02T11:02:27.313Z,94633.13
2023-04-02T11:04:57.347Z,94636.19
2023-04-02T11:07:29.352Z,94637.84
2023-04-02T11:09:58.651Z,94639.78
2023-04-02T11:12:30.437Z,94635.47
2023-04-02T11:14:58.334Z,94636.88
2023-04-02T11:17:26.171Z,94634.75
2023-04-02T11:19:54.053Z,94629.63
2023-04-02T11:22:23.092Z,94629.69
2023-04-02T11:24:52.779Z,94625.41
2023-04-02T11:27:25.744Z,94637.94
2023-04-02T11:29:57.061Z,94636.41
2023-04-02T11:32:43.021Z,94634.84
2023-04-02T11:35:27.668Z,94630.50
2023-04-02T11:37:56.418Z,94633.59
2023-04-02T11:40:51.310Z,94627.53
2023-04-02T11:43:50.967Z,94626.19
2023-04-02T11:46:42.098Z,94629.91
2023-04-02T11:49:49.576Z,94630.78
2023-04-02T11:52:23.231Z,94635.47
2023-04-02T11:54:58.590Z,94632.41
2023-04-02T11:57:42.400Z,94637.63
2023-04-02T12:00:23.032Z,94641.50
2023-04-02T12:03:03.413Z,94651.56
2023-04-02T12:05:36.428Z,94651.56
2023-04-02T12:08:22.759Z,94647.69
2023-04-02T12:10:54.766Z,94646.13
2023-04-02T12:13:51.429Z,94650.38
2023-04-02T12:16:19.214Z,94664.38
2023-04-02T12:18:48.450Z,94660.72
2023-04-02T12:21:17.558Z,94666.47
2023-04-02T12:23:47.074Z,94667.22
2023-04-02T12:26:38.425Z,94662.72
2023-04-02T12:29:26.604Z,94672.91
2023-04-02T12:31:56.109Z,94672.69
2023-04-02T12:34:25.551Z,94665.59
2023-04-02T12:36:55.676Z,94660.94
2023-04-02T12:39:26.006Z,94668.03
2023-04-02T12:41:55.906Z,94670.81
2023-04-02T12:44:27.148Z,94670.53
2023-04-02T12:46:55.465Z,94671.88
2023-04-02T12:49:29.373Z,94670.72
2023-04-02T12:51:57.431Z,94672.44
2023-04-02T12:54:25.145Z,94677.63
2023-04-02T12:56:53.044Z,94671.34
2023-04-02T12:59:34.682Z,94674.34
2023-04-02T13:02:03.949Z,94669.41
2023-04-02T13:04:31.821Z,94671.88
2023-04-02T13:07:00.479Z,94669.97
2023-04-02T13:09:31.899Z,94671.53
2023-04-02T13:12:00.063Z,94676.69
2023-04-02T13:14:28.050Z,94666.44
2023-04-02T13:16:57.290Z,94666.13
2023-04-02T13:19:30.840Z,94663.13
2023-04-02T13:22:00.057Z,94655.75
2023-04-02T13:24:28.897Z,94665.81
2023-04-02T13:26:58.028Z,94662.69
2023-04-02T13:29:27.669Z,94664.91
2023-04-02T13:31:58.713Z,94659.16
2023-04-02T13:34:26.634Z,94661.31
2023-04-02T13:36:54.645Z,94653.41
2023-04-02T13:39:22.414Z,94657.66
2023-04-02T13:41:52.869Z,94655.84
2023-04-02T13:44:23.128Z,94656.97
2023-04-02T13:46:51.219Z,94662.19
2023-04-02T13:49:20.180Z,94665.03
2023-04-02T13:51:49.591Z,94664.44
2023-04-02T13:54:23.937Z,94663.84
2023-04-02T13:56:51.692Z,94665.78
2023-04-02T13:59:19.408Z,94663.03
2023-04-02T14:01:48.036Z,94665.22
2023-04-02T14:04:21.618Z,94664.72
2023-04-02T14:07:07.252Z,94672.72
2023-04-02T14:09:41.421Z,94682.56
2023-04-02T14:12:17.170Z,94672.44
2023-04-02T14:15:09.049Z,94682.28
2023-04-02T14:17:43.563Z,94693.72
2023-04-02T14:20:21.724Z,94695.09
2023-04-02T14:23:01.464Z,94695.69
2023-04-02T14:25:35.454Z,94700.13
2023-04-02T14:28:07.728Z,94708.78
2023-04-02T14:30:38.193Z,94704.56
2023-04-02T14:33:11.120Z,94713.94
2023-04-02T14:35:43.986Z,94714.81
2023-04-02T14:38:19.151Z,94724.09
2023-04-02T14:40:49.588Z,94724.50
2023-04-02T14:43:19.221Z,94729.44
2023-04-02T14:45:57.095Z,94730.91
2023-04-02T14:48:41.428Z,94737.09
2023-04-02T14:51:15.754Z,94743.44
2023-04-02T14:53:51.477Z,94747.63
2023-04-02T14:56:21.764Z,94748.03
2023-04-02T14:58:51.999Z,94745.72
2023-04-02T15:01:21.684Z,94743.66
2023-04-02T15:03:52.309Z,94750.38
2023-04-02T15:06:23.477Z,94753.78
2023-04-02T15:09:06.186Z,94753.13
2023-04-02T15:11:38.447Z,94766.56
2023-04-02T15:14:08.752Z,94773.53
2023-04-02T15:16:36.817Z,94760.78
2023-04-02T15:19:07.566Z,94768.81
2023-04-02T15:22:06.083Z,94770.59
2023-04-02T15:24:43.216Z,94781.47
2023-04-02T15:27:24.879Z,94780.03
2023-04-02T15:29:58.650Z,94783.81
2023-04-02T15:32:31.732Z,94782.72
2023-04-02T15:35:02.998Z,94781.91
2023-04-02T15:37:36.264Z,94786.41
2023-04-02T15:40:30.401Z,94794.16
2023-04-02T15:43:03.723Z,94794.06
2023-04-02T15:45:38.006Z,94795.59
2023-04-02T15:48:38.663Z,94804.09
2023-04-02T15:51:17.042Z,94802.06
2023-04-02T15:53:54.614Z,94803.84
2023-04-02T15:56:26.586Z,94816.94
2023-04-02T15:59:18.991Z,94810.44
2023-04-02T16:01:55.346Z,94817.53
2023-04-02T16:04:39.723Z,94820.13
2023-04-02T16:07:20.642Z,94833.53
2023-04-02T16:09:58.844Z,94817.75
2023-04-02T16:12:29.199Z,94822.81
2023-04-02T16:15:05.735Z,94824.47
2023-04-02T16:17:38.378Z,94831.66
2023-04-02T16:20:18.016Z,94837.91
2023-04-02T16:22:59.309Z,94839.09
2023-04-02T16:25:32.601Z,94840.28
2023-04-02T16:28:09.558Z,94844.16
2023-04-02T16:30:42.955Z,94850.97
2023-04-02T16:33:18.916Z,94852.66
2023-04-02T16:35:52.561Z,94850.41
2023-04-02T16:38:30.333Z,94857.72
2023-04-02T16:41:08.337Z,94854.78
2023-04-02T16:43:44.210Z,94861.28
2023-04-02T16:46:25.304Z,94873.91
2023-04-02T16:49:08.850Z,94879.19
2023-04-02T16:51:42.750Z,94888.34
2023-04-02T16:54:13.030Z,94887.56
2023-04-02T16:56:50.512Z,94885.69
2023-04-02T16:59:21.392Z,94893.13
2023-04-02T17:01:56.055Z,94898.72
2023-04-02T17:04:37.310Z,94906.91
2023-04-02T17:07:11.859Z,94911.63
2023-04-02T17:09:45.534Z,94910.00
2023-04-02T17:12:18.051Z,94921.34
2023-04-02T17:14:51.911Z,94918.28
2023-04-02T17:17:21.677Z,94923.16
2023-04-02T17:19:51.583Z,94921.06
2023-04-02T17:22:22.235Z,94930.38
2023-04-02T17:24:53.799Z,94929.78
2023-04-02T17:27:27.228Z,94934.19
2023-04-02T17:29:59.302Z,94932.94
2023-04-02T17:32:29.682Z,94937.03
2023-04-02T17:34:57.808Z,94936.81
2023-04-02T17:37:32.177Z,94947.66
2023-04-02T17:40:09.835Z,94943.25
2023-04-02T17:42:49.034Z,94954.44
2023-04-02T17:45:20.446Z,94963.28
2023-04-02T17:47:57.133Z,94971.09
2023-04-02T17:50:35.520Z,94973.09
2023-04-02T17:53:10.269Z,94974.03
2023-04-02T17:55:46.112Z,94977.78
2023-04-02T17:58:27.983Z,94976.16
2023-04-02T18:01:14.071Z,94991.19
2023-04-02T18:03:51.989Z,94990.38
2023-04-02T18:06:22.022Z,94994.13
2023-04-02T18:09:04.270Z,95001.28
2023-04-02T18:11:33.393Z,95009.56
2023-04-02T18:14:08.551Z,95015.03
2023-04-02T18:16:42.407Z,95019.19
2023-04-02T18:19:16.666Z,95023.31
2023-04-02T18:21:51.774Z,95025.06
2023-04-02T18:24:32.181Z,95031.94
2023-04-02T18:27:14.031Z,95047.84
2023-04-02T18:29:46.600Z,95041.44
2023-04-02T18:32:36.904Z,95048.72
2023-04-02T18:35:14.722Z,95055.97
2023-04-02T18:37:51.529Z,95056.41
2023-04-02T18:40:26.785Z,95056.22
2023-04-02T18:43:01.601Z,95061.84
2023-04-02T18:45:39.145Z,95061.84
2023-04-02T18:48:12.054Z,95063.13
2023-04-02T18:50:40.899Z,95078.28
2023-04-02T18:53:13.597Z,95080.59
2023-04-02T18:55:45.922Z,95084.97
2023-04-02T18:58:16.682Z,95095.16
2023-04-02T19:00:46.253Z,95090.78
2023-04-02T19:03:19.348Z,95096.41
2023-04-02T19:05:50.550Z,95092.28
2023-04-02T19:08:20.834Z,95098.31
2023-04-02T19:10:50.712Z,95103.50
2023-04-02T19:13:19.644Z,95104.75
2023-04-02T19:16:14.748Z,95110.34
2023-04-02T19:18:52.856Z,95108.47
2023-04-02T19:21:26.638Z,95118.03
2023-04-02T19:24:03.966Z,95122.63
2023-04-02T19:26:37.261Z,95133.41
2023-04-02T19:29:16.257Z,95139.44
2023-04-02T19:31:51.048Z,95143.16
2023-04-02T19:34:22.013Z,95142.13
2023-04-02T19:36:52.834Z,95152.91
2023-04-02T19:39:59.952Z,95155.59
2023-04-02T19:42:43.267Z,95165.56
2023-04-02T19:45:28.042Z,95163.88
2023-04-02T19:47:58.381Z,95169.66
2023-04-02T19:50:26.386Z,95176.31
2023-04-02T19:52:53.975Z,95174.81
2023-04-02T19:55:21.655Z,95188.06
2023-04-02T19:57:49.250Z,95185.75
2023-04-02T20:00:17.868Z,95186.78
2023-04-02T20:02:45.703Z,95196.72
2023-04-02T20:05:14.939Z,95196.34
2023-04-02T20:07:42.570Z,95198.84
2023-04-02T20:10:11.344Z,95196.53
2023-04-02T20:12:38.988Z,95202.16
2023-04-02T20:15:08.343Z,95206.91
2023-04-02T20:17:35.970Z,95212.03
2023-04-02T20:20:04.536Z,95212.78
2023-04-02T20:22:33.466Z,95216.13
2023-04-02T20:25:01.044Z,95224.00
2023-04-02T20:27:29.054Z,95225.66
2023-04-02T20:29:57.045Z,95224.03
2023-04-02T20:32:24.793Z,95228.94
2023-04-02T20:34:53.217Z,95218.56
2023-04-02T20:37:21.349Z,95226.38
2023-04-02T20:39:50.531Z,95237.78
2023-04-02T20:42:18.276Z,95236.91
2023-04-02T20:44:46.304Z,95237.56
2023-04-02T20:47:14.192Z,95242.75
2023-04-02T20:49:41.934Z,95247.69
2023-04-02T20:52:10.091Z,95262.75
2023-04-02T20:54:37.772Z,95267.19
2023-04-02T20:57:07.113Z,95264.69
2023-04-02T20:59:34.875Z,95270.47
2023-04-02T21:02:02.521Z,95276.25
2023-04-02T21:04:30.298Z,95278.13
2023-04-02T21:06:57.978Z,95268.81
2023-04-02T21:09:25.751Z,95287.22
2023-04-02T21:11:53.407Z,95292.47
2023-04-02T21:14:22.391Z,95293.69
2023-04-02T21:16:50.063Z,95299.34
2023-04-02T21:19:17.697Z,95295.34
2023-04-02T21:21:45.458Z,95296.13
2023-04-02T21:24:13.295Z,95298.16
2023-04-02T21:26:41.891Z,95294.06
2023-04-02T21:29:09.619Z,95306.88
2023-04-02T21:31:40.374Z,95314.41
2023-04-02T21:34:09.436Z,95306.03
2023-04-02T21:36:38.393Z,95317.47
2023-04-02T21:39:07.945Z,95316.25
2023-04-02T21:41:37.019Z,95314.31
2023-04-02T21:44:06.641Z,95321.53
2023-04-02T21:46:36.077Z,95323.84
2023-04-02T21:49:05.920Z,95334.25
2023-04-02T21:51:34.393Z,95335.94
2023-04-02T21:54:02.387Z,95333.34
2023-04-02T21:56:31.216Z,95336.59
2023-04-02T21:59:01.846Z,95336.41
2023-04-02T22:01:31.510Z,95341.78
2023-04-02T22:04:01.689Z,95344.09
2023-04-02T22:06:32.482Z,95348.06
2023-04-02T22:09:01.259Z,95357.25
2023-04-02T22:11:31.189Z,95351.03
2023-04-02T22:13:59.319Z,95351.78
2023-04-02T22:16:29.043Z,95358.44
2023-04-02T22:18:59.270Z,95358.72
2023-04-02T22:21:27.225Z,95358.34
2023-04-02T22:23:56.471Z,95364.56
2023-04-02T22:26:24.313Z,95368.75
2023-04-02T22:28:52.630Z,95355.13
2023-04-02T22:31:22.192Z,95367.34
2023-04-02T22:33:50.399Z,95374.13
2023-04-02T22:36:18.990Z,95369.03
2023-04-02T22:38:46.933Z,95375.41
2023-04-02T22:41:17.196Z,95387.00
2023-04-02T22:43:46.147Z,95384.84
2023-04-02T22:46:16.399Z,95390.22
2023-04-02T22:48:44.764Z,95383.00
2023-04-02T22:51:14.122Z,95389.13
2023-04-02T22:53:42.951Z,95386.44
2023-04-02T22:56:11.933Z,95394.88
2023-04-02T22:58:41.141Z,95385.50
2023-04-02T23:01:11.794Z,95390.06
2023-04-02T23:03:39.580Z,95388.72
2023-04-02T23:06:09.302Z,95395.41
2023-04-02T23:08:37.839Z,95396.53
2023-04-02T23:11:07.483Z,95400.25
2023-04-02T23:13:35.788Z,95402.75
2023-04-02T23:16:07.300Z,95395.31
2023-04-02T23:18:35.574Z,95396.91
2023-04-02T23:21:03.582Z,95402.91
2023-04-02T23:23:32.011Z,95398.19
2023-04-02T23:26:07.194Z,95400.31
2023-04-02T23:28:35.292Z,95399.94
2023-04-02T23:31:05.952Z,95411.16
2023-04-02T23:33:33.609Z,95407.44
2023-04-02T23:36:01.322Z,95403.44
2023-04-02T23:38:28.992Z,95399.88
2023-04-02T23:40:56.606Z,95398.09
2023-04-02T23:43:24.195Z,95405.50
2023-04-02T23:45:51.970Z,95404.22
2023-04-02T23:48:21.110Z,95393.28
2023-04-02T23:50:48.764Z,95400.66
2023-04-02T23:53:18.571Z,95399.44
2023-04-02T23:55:46.213Z,95388.81
2023-04-02T23:58:13.946Z,95395.72
